Time;durP1;ratioP1;P1;durP2;ratioP2;P2;SDS_P1;SDS_P2;PMS_P1;PMS_P2;Temp;Humidity;BMP_temperature;BMP_pressure;BME280_temperature;BME280_humidity;BME280_pressure;Samples;Min_cycle;Max_cycle;Signal;HPM_P1;HPM_P2
2022/04/28 00:00:29;;;;;;;0.67;0.43;;;7.90;99.90;;;;;;5035087;28;20820;-84
2022/04/28 00:02:57;;;;;;;0.40;0.30;;;7.80;99.90;;;;;;5035400;28;20641;-85
2022/04/28 00:05:24;;;;;;;0.40;0.30;;;7.80;99.90;;;;;;5034959;28;21004;-84
2022/04/28 00:07:51;;;;;;;0.40;0.40;;;7.70;99.90;;;;;;5035271;28;20462;-82
2022/04/28 00:10:19;;;;;;;0.37;0.37;;;7.70;99.90;;;;;;5034980;28;20457;-82
2022/04/28 00:12:46;;;;;;;0.40;0.33;;;7.80;99.90;;;;;;5035056;28;20482;-82
2022/04/28 00:15:13;;;;;;;0.67;0.67;;;7.80;99.90;;;;;;5035136;28;20442;-84
2022/04/28 00:17:40;;;;;;;0.40;0.40;;;7.90;99.90;;;;;;5035100;28;20443;-83
2022/04/28 00:20:08;;;;;;;0.50;0.50;;;7.90;99.90;;;;;;5034827;28;20434;-82
2022/04/28 00:22:35;;;;;;;1.70;0.93;;;8.00;99.90;;;;;;5034624;28;20458;-81
2022/04/28 00:25:02;;;;;;;0.87;0.30;;;8.00;99.90;;;;;;5034846;28;20451;-82
2022/04/28 00:27:31;;;;;;;0.50;0.33;;;8.00;99.90;;;;;;5033956;28;20462;-84
2022/04/28 00:29:58;;;;;;;2.17;0.63;;;8.00;99.90;;;;;;5034604;28;20892;-84
2022/04/28 00:32:25;;;;;;;0.63;0.63;;;8.10;99.90;;;;;;5034406;28;20887;-84
2022/04/28 00:34:52;;;;;;;0.33;0.33;;;8.10;99.90;;;;;;5034774;28;20415;-82
2022/04/28 00:37:18;;;;;;;0.40;0.40;;;8.10;99.90;;;;;;5034406;28;20978;-81
2022/04/28 00:39:46;;;;;;;1.57;1.47;;;8.10;99.90;;;;;;5034424;28;20806;-83
2022/04/28 00:42:15;;;;;;;1.27;1.03;;;8.10;99.90;;;;;;5034172;28;20973;-82
2022/04/28 00:44:44;;;;;;;1.07;0.50;;;8.00;99.90;;;;;;5034548;28;20454;-81
2022/04/28 00:47:11;;;;;;;1.50;0.50;;;8.00;99.90;;;;;;5034135;28;20479;-83
2022/04/28 00:52:23;;;;;;;0.40;0.40;;;8.00;99.90;;;;;;5034241;28;20854;-83
2022/04/28 00:54:52;;;;;;;0.30;0.30;;;7.90;99.90;;;;;;5034058;28;20960;-82
2022/04/28 00:57:20;;;;;;;0.53;0.53;;;7.90;99.90;;;;;;5033933;28;20447;-82
2022/04/28 00:59:49;;;;;;;4.60;0.70;;;7.90;99.90;;;;;;5034294;28;20493;-84
2022/04/28 01:02:18;;;;;;;0.53;0.47;;;7.80;99.90;;;;;;5034230;28;20463;-82
2022/04/28 01:04:45;;;;;;;0.40;0.40;;;7.80;99.90;;;;;;5034204;28;20446;-83
2022/04/28 01:07:12;;;;;;;0.77;0.77;;;7.80;99.90;;;;;;5033686;28;21031;-82
2022/04/28 01:09:41;;;;;;;0.63;0.63;;;7.70;99.90;;;;;;5034082;28;20504;-83
2022/04/28 01:12:08;;;;;;;0.77;0.77;;;7.70;99.90;;;;;;5034012;28;20509;-84
2022/04/28 01:14:35;;;;;;;0.60;0.60;;;7.70;99.90;;;;;;5033978;28;20448;-83
2022/04/28 01:17:04;;;;;;;0.30;0.30;;;7.70;99.90;;;;;;5033922;28;20458;-83
2022/04/28 01:19:31;;;;;;;2.20;0.80;;;7.60;99.90;;;;;;5033578;28;20941;-81
2022/04/28 01:21:59;;;;;;;0.40;0.40;;;7.60;99.90;;;;;;5033760;28;20466;-84
2022/04/28 01:24:25;;;;;;;0.40;0.30;;;7.50;99.90;;;;;;5033853;28;20521;-84
2022/04/28 01:26:55;;;;;;;0.97;0.97;;;7.50;99.90;;;;;;5033777;28;20474;-82
2022/04/28 01:29:22;;;;;;;0.80;0.40;;;7.50;99.90;;;;;;5033753;28;20482;-82
2022/04/28 01:31:48;;;;;;;0.30;0.30;;;7.50;99.90;;;;;;5033640;28;20474;-82
2022/04/28 01:34:15;;;;;;;1.37;0.90;;;7.50;99.90;;;;;;5033202;28;20482;-82
2022/04/28 01:36:42;;;;;;;0.97;0.40;;;7.50;99.90;;;;;;5033584;28;20442;-82
2022/04/28 01:39:11;;;;;;;2.13;1.10;;;7.40;99.90;;;;;;5033225;28;20930;-82
2022/04/28 01:41:37;;;;;;;1.43;0.73;;;7.40;99.90;;;;;;5033454;28;20509;-83
2022/04/28 01:44:04;;;;;;;0.43;0.43;;;7.40;99.90;;;;;;5033531;28;20457;-82
2022/04/28 01:46:31;;;;;;;0.40;0.30;;;7.40;99.90;;;;;;5033016;28;20857;-82
2022/04/28 01:48:58;;;;;;;1.10;0.50;;;7.30;99.90;;;;;;5033485;28;20451;-81
2022/04/28 01:56:55;;;;;;;0.87;0.87;;;7.30;99.90;;;;;;5033403;28;20403;-82
2022/04/28 01:59:21;;;;;;;0.73;0.50;;;7.30;99.90;;;;;;5033352;28;20453;-81
2022/04/28 02:01:48;;;;;;;0.63;0.63;;;7.30;99.90;;;;;;5033208;28;20462;-83
2022/04/28 02:04:15;;;;;;;3.13;0.80;;;7.30;99.90;;;;;;5033217;28;20451;-83
2022/04/28 02:06:42;;;;;;;0.40;0.40;;;7.30;99.90;;;;;;5033302;28;20478;-82
2022/04/28 02:09:10;;;;;;;0.30;0.30;;;7.40;99.90;;;;;;5033155;28;20922;-81
2022/04/28 02:11:37;;;;;;;0.40;0.40;;;7.40;99.90;;;;;;5033142;28;20830;-82
2022/04/28 02:14:04;;;;;;;0.30;0.30;;;7.40;99.90;;;;;;5033194;28;20458;-82
2022/04/28 02:16:30;;;;;;;0.53;0.53;;;7.40;99.90;;;;;;5033143;28;20446;-82
2022/04/28 02:18:57;;;;;;;1.60;0.77;;;7.40;99.90;;;;;;5033151;28;20811;-83
2022/04/28 02:21:24;;;;;;;0.47;0.47;;;7.30;99.90;;;;;;5033050;28;20478;-82
2022/04/28 02:23:51;;;;;;;0.80;0.70;;;7.30;99.90;;;;;;5032723;28;20458;-84
2022/04/28 02:26:19;;;;;;;0.40;0.33;;;7.30;99.90;;;;;;5032966;28;20482;-82
2022/04/28 02:28:45;;;;;;;2.40;0.47;;;7.30;99.90;;;;;;5033008;28;20451;-81
2022/04/28 02:31:12;;;;;;;0.33;0.33;;;7.30;99.90;;;;;;5032931;28;20462;-81
2022/04/28 02:33:39;;;;;;;0.37;0.33;;;7.30;99.90;;;;;;5032534;28;20858;-83
2022/04/28 02:36:06;;;;;;;0.60;0.40;;;7.30;99.90;;;;;;5032746;28;20447;-82
2022/04/28 02:38:33;;;;;;;0.70;0.47;;;7.30;99.90;;;;;;5032944;28;20476;-82
2022/04/28 02:40:59;;;;;;;0.40;0.40;;;7.20;99.90;;;;;;5032840;28;20831;-82
2022/04/28 02:43:27;;;;;;;0.57;0.57;;;7.20;99.90;;;;;;5032915;28;20451;-82
2022/04/28 02:45:54;;;;;;;0.50;0.50;;;7.20;99.90;;;;;;5032521;28;20961;-82
2022/04/28 02:48:21;;;;;;;0.30;0.30;;;7.20;99.90;;;;;;5032626;28;20946;-82
2022/04/28 02:50:48;;;;;;;0.70;0.30;;;7.10;99.90;;;;;;5035050;28;20449;-82
2022/04/28 02:53:14;;;;;;;0.30;0.30;;;7.10;99.90;;;;;;5036792;28;20458;-84
2022/04/28 02:55:41;;;;;;;0.60;0.60;;;7.00;99.90;;;;;;5036351;28;20938;-82
2022/04/28 02:58:09;;;;;;;0.40;0.40;;;6.90;99.90;;;;;;5036423;28;20454;-81
2022/04/28 03:00:37;;;;;;;0.40;0.40;;;6.90;99.90;;;;;;5036684;28;20470;-81
2022/04/28 03:03:04;;;;;;;1.07;0.60;;;6.90;99.90;;;;;;5036607;28;20470;-80
2022/04/28 03:05:31;;;;;;;0.30;0.30;;;6.80;99.90;;;;;;5036739;28;20442;-82
2022/04/28 03:10:51;;;;;;;0.40;0.40;;;6.60;99.90;;;;;;5037031;28;20402;-81
2022/04/28 03:13:19;;;;;;;0.93;0.60;;;6.60;99.90;;;;;;5037481;28;20513;-79
2022/04/28 03:15:47;;;;;;;0.40;0.37;;;6.50;99.90;;;;;;5038371;28;20454;-81
2022/04/28 03:18:14;;;;;;;0.40;0.37;;;6.50;99.90;;;;;;5038931;28;20442;-81
2022/04/28 03:20:41;;;;;;;0.77;0.77;;;6.50;99.90;;;;;;5046945;28;20451;-81
2022/04/28 03:23:10;;;;;;;0.87;0.87;;;6.40;99.90;;;;;;5048526;28;20809;-80
2022/04/28 03:25:37;;;;;;;0.73;0.73;;;6.40;99.90;;;;;;5050571;28;20446;-80
2022/04/28 03:28:04;;;;;;;0.30;0.30;;;6.30;99.90;;;;;;5050658;28;20474;-80
2022/04/28 03:30:30;;;;;;;0.93;0.93;;;6.30;99.90;;;;;;5053025;28;20473;-80
2022/04/28 03:32:58;;;;;;;1.73;0.70;;;6.20;99.90;;;;;;5052819;28;20493;-80
2022/04/28 03:35:25;;;;;;;0.50;0.50;;;6.20;99.90;;;;;;5051148;28;20450;-80
2022/04/28 03:37:52;;;;;;;0.30;0.30;;;6.10;99.90;;;;;;5046460;28;20438;-79
2022/04/28 03:40:19;;;;;;;0.40;0.30;;;6.10;99.90;;;;;;5040567;28;20446;-79
2022/04/28 03:42:46;;;;;;;0.70;0.53;;;6.10;99.90;;;;;;5040928;28;20866;-79
2022/04/28 03:45:12;;;;;;;1.77;0.40;;;6.10;99.90;;;;;;5040378;28;20443;-80
2022/04/28 03:47:39;;;;;;;0.40;0.30;;;6.00;99.90;;;;;;5040577;28;20482;-79
2022/04/28 03:50:09;;;;;;;2.20;0.50;;;6.00;99.90;;;;;;5040831;28;20446;-80
2022/04/28 03:52:37;;;;;;;0.40;0.40;;;6.00;99.90;;;;;;5040275;28;20475;-79
2022/04/28 03:55:05;;;;;;;2.53;0.40;;;6.00;99.90;;;;;;5039683;28;20439;-79
2022/04/28 03:57:32;;;;;;;0.30;0.30;;;5.90;99.90;;;;;;5040869;28;20864;-79
2022/04/28 03:59:58;;;;;;;1.33;0.80;;;5.90;99.90;;;;;;5041136;28;20568;-79
2022/04/28 04:02:25;;;;;;;0.47;0.47;;;5.90;99.90;;;;;;5038972;28;20826;-79
2022/04/28 04:04:52;;;;;;;0.77;0.77;;;5.90;99.90;;;;;;5040595;28;20477;-79
2022/04/28 04:07:20;;;;;;;0.50;0.50;;;5.90;99.90;;;;;;5040228;28;20474;-79
2022/04/28 04:09:47;;;;;;;0.90;0.70;;;6.00;99.90;;;;;;5040392;28;20457;-79
2022/04/28 04:12:13;;;;;;;0.43;0.43;;;6.00;99.90;;;;;;5040588;28;20467;-79
2022/04/28 04:14:40;;;;;;;0.60;0.60;;;6.00;99.90;;;;;;5040808;28;20446;-80
2022/04/28 04:17:07;;;;;;;0.30;0.20;;;6.00;99.90;;;;;;5036561;28;20454;-79
2022/04/28 04:19:34;;;;;;;0.40;0.40;;;6.00;99.90;;;;;;5036586;28;20443;-79
2022/04/28 04:22:00;;;;;;;0.87;0.60;;;6.00;99.90;;;;;;5036527;28;20476;-79
2022/04/28 04:24:30;;;;;;;0.50;0.50;;;5.90;99.90;;;;;;5036253;28;20827;-80
2022/04/28 04:26:58;;;;;;;0.90;0.50;;;5.90;99.90;;;;;;5036959;28;20509;-79
2022/04/28 04:29:24;;;;;;;1.07;0.60;;;5.90;99.90;;;;;;5036593;28;20810;-79
2022/04/28 04:34:35;;;;;;;0.47;0.37;;;5.90;99.90;;;;;;5038507;28;20475;-79
2022/04/28 04:37:02;;;;;;;0.53;0.53;;;5.90;99.90;;;;;;5040066;28;20829;-80
2022/04/28 04:39:30;;;;;;;0.50;0.50;;;5.90;99.90;;;;;;5040145;28;20457;-79
2022/04/28 04:41:57;;;;;;;0.60;0.60;;;5.80;99.90;;;;;;5039937;28;20465;-79
2022/04/28 04:44:24;;;;;;;7.20;1.00;;;5.90;99.90;;;;;;5039485;28;20532;-79
2022/04/28 04:46:50;;;;;;;0.80;0.50;;;5.90;99.90;;;;;;5038991;28;20485;-80
2022/04/28 04:49:17;;;;;;;0.60;0.60;;;5.90;99.90;;;;;;5040400;28;20449;-80
2022/04/28 04:51:44;;;;;;;0.33;0.33;;;6.00;99.90;;;;;;5039866;28;20877;-79
2022/04/28 04:54:11;;;;;;;0.50;0.40;;;6.00;99.90;;;;;;5039230;28;20791;-79
2022/04/28 04:56:39;;;;;;;0.30;0.30;;;6.00;99.90;;;;;;5038874;28;20442;-80
2022/04/28 04:59:06;;;;;;;0.83;0.83;;;6.10;99.90;;;;;;5038850;28;20443;-79
2022/04/28 05:01:33;;;;;;;1.23;0.93;;;6.20;99.90;;;;;;5038417;28;20477;-79
2022/04/28 05:04:00;;;;;;;3.13;0.67;;;6.20;99.90;;;;;;5038394;28;20809;-79
2022/04/28 05:06:27;;;;;;;2.00;0.83;;;6.20;99.90;;;;;;5038218;28;20453;-81
2022/04/28 05:08:54;;;;;;;0.63;0.40;;;6.20;99.90;;;;;;5037834;28;20450;-80
2022/04/28 05:11:21;;;;;;;0.93;0.77;;;6.30;99.90;;;;;;5036936;28;21012;-81
2022/04/28 05:13:49;;;;;;;1.13;0.73;;;6.30;99.90;;;;;;5035958;28;20442;-81
2022/04/28 05:16:16;;;;;;;0.93;0.90;;;6.30;99.90;;;;;;5036816;28;20462;-81
2022/04/28 05:18:43;;;;;;;0.80;0.60;;;6.40;99.90;;;;;;5035240;28;20438;-80
2022/04/28 05:21:09;;;;;;;0.50;0.50;;;6.40;99.90;;;;;;5035039;28;20485;-80
2022/04/28 05:23:36;;;;;;;0.87;0.87;;;6.50;99.90;;;;;;5035532;28;20446;-80
2022/04/28 05:26:03;;;;;;;1.93;0.60;;;6.50;99.90;;;;;;5035138;28;20442;-80
2022/04/28 05:28:30;;;;;;;0.50;0.50;;;6.60;99.90;;;;;;5034479;28;20485;-81
2022/04/28 05:30:58;;;;;;;2.10;0.67;;;6.70;99.90;;;;;;5034035;28;20458;-80
2022/04/28 05:33:24;;;;;;;0.30;0.30;;;6.70;99.90;;;;;;5033686;28;20860;-81
2022/04/28 05:35:52;;;;;;;0.70;0.70;;;6.80;99.90;;;;;;5033897;28;20493;-80
2022/04/28 05:38:19;;;;;;;0.70;0.47;;;6.80;99.90;;;;;;5033693;28;20523;-76
2022/04/28 05:40:46;;;;;;;0.97;0.60;;;6.90;99.90;;;;;;5033555;28;20462;-75
2022/04/28 05:45:59;;;;;;;0.30;0.20;;;7.10;99.90;;;;;;5033569;28;20474;-75
2022/04/28 05:48:25;;;;;;;0.77;0.77;;;7.30;99.90;;;;;;5033037;28;20493;-75
2022/04/28 05:50:53;;;;;;;1.03;0.93;;;7.50;99.90;;;;;;5033311;28;20442;-75
2022/04/28 05:53:20;;;;;;;1.83;0.50;;;7.70;99.90;;;;;;5033138;28;20427;-76
2022/04/28 05:55:47;;;;;;;0.40;0.40;;;8.00;99.90;;;;;;5033342;28;20463;-75
2022/04/28 05:58:13;;;;;;;2.70;0.83;;;8.30;99.90;;;;;;5033263;28;20516;-75
2022/04/28 06:00:40;;;;;;;0.93;0.60;;;8.60;99.90;;;;;;5033258;28;20451;-75
2022/04/28 06:03:08;;;;;;;1.43;0.77;;;8.90;99.90;;;;;;5033170;28;20493;-75
2022/04/28 06:05:35;;;;;;;2.23;0.70;;;9.30;99.90;;;;;;5032876;28;20443;-75
2022/04/28 06:08:01;;;;;;;1.53;0.93;;;9.70;99.90;;;;;;5033105;28;20470;-75
2022/04/28 06:10:29;;;;;;;0.50;0.50;;;10.20;99.90;;;;;;5033136;28;20474;-76
2022/04/28 06:12:55;;;;;;;1.27;1.20;;;10.50;99.90;;;;;;5033050;28;20478;-75
2022/04/28 06:15:22;;;;;;;4.80;0.80;;;10.80;99.90;;;;;;5033097;28;20455;-75
2022/04/28 06:17:49;;;;;;;0.83;0.77;;;11.00;99.90;;;;;;5033043;28;20446;-77
2022/04/28 06:20:17;;;;;;;1.13;1.00;;;11.20;99.90;;;;;;5033110;28;20443;-76
2022/04/28 06:22:44;;;;;;;4.30;1.27;;;11.40;99.90;;;;;;5032926;28;20477;-76
2022/04/28 06:25:11;;;;;;;1.07;0.80;;;11.60;99.90;;;;;;5034387;28;20463;-76
2022/04/28 06:27:38;;;;;;;0.80;0.80;;;11.90;99.90;;;;;;5036776;28;20840;-76
2022/04/28 06:30:06;;;;;;;0.80;0.80;;;12.30;99.90;;;;;;5037083;28;20457;-76
2022/04/28 06:32:33;;;;;;;1.73;0.70;;;12.60;99.90;;;;;;5036787;28;20565;-76
2022/04/28 06:35:00;;;;;;;1.70;1.23;;;12.90;99.90;;;;;;5037014;28;20453;-76
2022/04/28 06:37:28;;;;;;;0.70;0.60;;;13.40;99.90;;;;;;5036896;28;20466;-76
2022/04/28 06:39:55;;;;;;;1.83;1.73;;;14.00;99.90;;;;;;5036595;28;20771;-76
2022/04/28 06:42:22;;;;;;;2.80;1.63;;;14.70;99.90;;;;;;5036766;28;20481;-76
2022/04/28 06:44:48;;;;;;;1.10;1.00;;;15.20;99.90;;;;;;5036545;28;21071;-76
2022/04/28 06:47:15;;;;;;;3.37;1.73;;;15.60;99.90;;;;;;5036674;28;20482;-76
2022/04/28 06:49:42;;;;;;;1.73;1.20;;;16.00;99.90;;;;;;5036730;28;20473;-76
2022/04/28 06:52:09;;;;;;;3.13;1.30;;;16.30;99.90;;;;;;5036633;28;20489;-76
2022/04/28 06:54:38;;;;;;;2.00;1.37;;;16.60;99.90;;;;;;5036639;28;20473;-76
2022/04/28 06:57:04;;;;;;;2.60;1.47;;;16.80;99.90;;;;;;5036563;28;20517;-76
2022/04/28 06:59:32;;;;;;;1.37;1.17;;;17.50;99.90;;;;;;5036201;28;20541;-77
2022/04/28 07:01:58;;;;;;;2.50;1.00;;;18.20;99.90;;;;;;5036454;28;20470;-76
2022/04/28 07:04:25;;;;;;;1.13;1.13;;;19.30;98.30;;;;;;5036465;28;20450;-76
2022/04/28 07:06:52;;;;;;;0.90;0.70;;;20.00;92.60;;;;;;5036453;28;20846;-76
2022/04/28 07:09:18;;;;;;;2.53;0.93;;;21.10;89.90;;;;;;5036394;28;20454;-76
2022/04/28 07:11:46;;;;;;;0.88;0.70;;;22.00;82.90;;;;;;5036291;28;20246;-76
2022/04/28 07:14:15;;;;;;;1.48;1.20;;;23.00;73.90;;;;;;5036042;28;20674;-76
2022/04/28 07:16:42;;;;;;;1.05;1.00;;;23.90;69.80;;;;;;5036269;28;20206;-76
2022/04/28 07:19:08;;;;;;;1.67;0.88;;;24.50;62.90;;;;;;5036169;28;20223;-76
2022/04/28 07:21:35;;;;;;;1.50;0.80;;;25.10;58.30;;;;;;5036144;28;20228;-76
2022/04/28 07:24:02;;;;;;;1.48;1.20;;;25.40;57.00;;;;;;5036104;28;20214;-76
2022/04/28 07:26:29;;;;;;;1.13;1.02;;;25.70;56.70;;;;;;5036095;28;20208;-76
2022/04/28 07:28:57;;;;;;;1.42;1.20;;;26.00;54.70;;;;;;5036015;28;20205;-76
2022/04/28 07:31:24;;;;;;;1.42;1.23;;;26.50;51.20;;;;;;5035927;28;20232;-76
2022/04/28 07:33:51;;;;;;;1.67;1.25;;;26.60;50.90;;;;;;5035604;28;20228;-76
2022/04/28 07:36:18;;;;;;;1.30;1.20;;;26.50;48.80;;;;;;5035266;28;20204;-76
2022/04/28 07:38:45;;;;;;;1.35;1.17;;;26.20;48.40;;;;;;5035825;28;20222;-76
2022/04/28 07:41:12;;;;;;;1.48;1.02;;;26.30;48.30;;;;;;5035735;28;20223;-76
2022/04/28 07:43:39;;;;;;;1.70;1.27;;;25.80;48.70;;;;;;5035848;28;20215;-76
2022/04/28 07:46:07;;;;;;;2.25;1.50;;;26.10;48.80;;;;;;5035713;28;20206;-76
2022/04/28 07:48:33;;;;;;;2.88;0.98;;;26.20;48.80;;;;;;5035719;28;20261;-76
2022/04/28 07:51:00;;;;;;;1.25;0.90;;;26.60;47.30;;;;;;5035564;28;20229;-76
2022/04/28 07:53:27;;;;;;;2.78;1.00;;;26.60;47.00;;;;;;5035262;28;20207;-76
2022/04/28 07:56:14;;;;;;;0.95;0.95;;;27.00;46.70;;;;;;5035556;28;20214;-76
2022/04/28 07:58:42;;;;;;;1.10;1.10;;;26.30;45.50;;;;;;5035480;28;20219;-76
2022/04/28 08:01:11;;;;;;;1.27;0.90;;;26.20;45.00;;;;;;5035438;28;20206;-76
2022/04/28 08:03:38;;;;;;;1.42;1.20;;;27.00;44.80;;;;;;5035399;28;20204;-76
2022/04/28 08:06:05;;;;;;;1.65;1.55;;;26.90;44.70;;;;;;5035794;28;20566;-76
2022/04/28 08:08:33;;;;;;;1.30;1.20;;;27.40;44.00;;;;;;5035376;28;20197;-76
2022/04/28 08:11:01;;;;;;;1.23;1.13;;;27.80;43.00;;;;;;5034930;28;20207;-76
2022/04/28 08:13:28;;;;;;;1.35;1.25;;;28.10;42.70;;;;;;5035238;28;20216;-76
2022/04/28 08:15:54;;;;;;;0.80;0.80;;;27.50;43.30;;;;;;5035196;28;20210;-77
2022/04/28 08:18:23;;;;;;;1.20;1.10;;;26.80;43.50;;;;;;5035072;28;20231;-77
2022/04/28 08:20:52;;;;;;;0.98;0.93;;;25.80;44.20;;;;;;5034763;28;20571;-76
2022/04/28 08:23:19;;;;;;;0.90;0.90;;;25.70;44.30;;;;;;5035261;28;20232;-76
2022/04/28 08:25:46;;;;;;;2.35;1.10;;;25.40;44.50;;;;;;5035700;28;20579;-76
2022/04/28 08:28:12;;;;;;;0.80;0.80;;;24.70;45.90;;;;;;5034714;28;20196;-76
2022/04/28 08:30:39;;;;;;;1.88;1.52;;;24.40;44.50;;;;;;5034898;28;20210;-76
2022/04/28 08:33:06;;;;;;;1.13;1.10;;;24.00;45.00;;;;;;5034414;28;20235;-76
2022/04/28 08:35:34;;;;;;;0.82;0.82;;;23.80;45.20;;;;;;5034802;28;20211;-76
2022/04/28 08:38:01;;;;;;;2.58;0.98;;;23.40;47.20;;;;;;5034734;28;20215;-76
2022/04/28 08:40:28;;;;;;;1.08;0.98;;;23.30;46.90;;;;;;5034731;28;20210;-76
2022/04/28 09:14:11;;;;;;;1.67;1.00;;;20.20;50.60;;;;;;5996825;22;20486;-86
2022/04/28 09:16:44;;;;;;;0.60;0.60;;;20.40;50.90;;;;;;5034963;28;20434;-85
2022/04/28 09:19:12;;;;;;;0.60;0.60;;;20.40;49.80;;;;;;5034749;28;20477;-84
2022/04/28 09:21:42;;;;;;;0.73;0.70;;;20.50;51.10;;;;;;5034429;28;20981;-82
2022/04/28 09:24:11;;;;;;;0.77;0.77;;;20.50;48.50;;;;;;5034755;28;20434;-82
2022/04/28 09:26:39;;;;;;;0.60;0.60;;;20.20;50.70;;;;;;5034615;28;20791;-84
2022/04/28 09:29:12;;;;;;;1.00;0.60;;;19.90;49.30;;;;;;5035169;28;20530;-87
2022/04/28 09:44:59;;;;;;;0.93;0.93;;;19.30;49.00;;;;;;5013880;28;20399;-80
2022/04/28 09:47:27;;;;;;;0.80;0.80;;;19.40;47.00;;;;;;5013739;28;20511;-79
2022/04/28 09:49:55;;;;;;;2.20;0.80;;;19.10;49.00;;;;;;5013760;28;20530;-79
2022/04/28 09:52:29;;;;;;;0.57;0.57;;;18.90;50.50;;;;;;5013352;28;20978;-80
2022/04/28 09:54:58;;;;;;;1.80;0.90;;;19.00;51.60;;;;;;5013702;28;20439;-79
2022/04/28 09:57:25;;;;;;;1.10;1.00;;;19.10;50.60;;;;;;5013626;28;20450;-80
2022/04/28 09:59:54;;;;;;;1.10;0.60;;;19.10;49.90;;;;;;5013380;28;20486;-81
2022/04/28 10:02:24;;;;;;;0.90;0.60;;;19.20;50.80;;;;;;5013214;28;21021;-81
2022/04/28 10:04:52;;;;;;;1.70;0.77;;;19.30;50.10;;;;;;5013345;28;20416;-79
2022/04/28 10:07:19;;;;;;;0.83;0.70;;;19.50;49.10;;;;;;5014145;28;20447;-78
2022/04/28 10:09:48;;;;;;;1.20;0.90;;;19.40;48.10;;;;;;5013185;28;20450;-78
2022/04/28 10:12:18;;;;;;;0.80;0.80;;;19.20;47.40;;;;;;5013097;28;20467;-78
2022/04/28 10:14:46;;;;;;;1.60;0.87;;;19.30;47.80;;;;;;5013131;28;20431;-78
2022/04/28 10:17:18;;;;;;;0.80;0.80;;;19.50;46.80;;;;;;5013082;28;20807;-78
2022/04/28 10:19:52;;;;;;;2.40;0.80;;;19.50;47.10;;;;;;5013049;28;20993;-79
2022/04/28 10:22:23;;;;;;;1.07;0.70;;;19.70;47.50;;;;;;5013315;28;20467;-77
2022/04/28 10:33:03;;;;;;;0.73;0.73;;;20.40;49.10;;;;;;4990816;28;20463;-80
2022/04/28 10:35:36;;;;;;;1.10;0.90;;;20.70;47.50;;;;;;5013180;28;20463;-81
2022/04/28 10:38:22;;;;;;;1.50;0.97;;;21.00;46.20;;;;;;5012919;28;20820;-80
2022/04/28 10:40:59;;;;;;;0.83;0.60;;;21.20;46.00;;;;;;5013384;28;20195;-82
2022/04/28 10:43:28;;;;;;;0.60;0.60;;;21.50;45.60;;;;;;5013349;28;20489;-80
2022/04/28 10:45:56;;;;;;;0.83;0.80;;;21.40;45.10;;;;;;5013094;28;20455;-81
2022/04/28 10:48:32;;;;;;;0.70;0.50;;;21.40;44.90;;;;;;5013229;28;20451;-84
2022/04/28 10:51:16;;;;;;;1.30;0.97;;;21.60;43.30;;;;;;5013153;28;20435;-84
2022/04/28 10:54:00;;;;;;;2.07;0.97;;;21.80;43.80;;;;;;5011000;28;20457;-85
2022/04/28 10:56:28;;;;;;;0.80;0.70;;;22.30;43.40;;;;;;5011790;28;20466;-82
2022/04/28 10:58:58;;;;;;;1.20;0.90;;;22.50;43.60;;;;;;5012790;28;20981;-83
2022/04/28 11:01:27;;;;;;;1.33;0.80;;;22.60;43.00;;;;;;5012692;28;20477;-81
2022/04/28 11:03:56;;;;;;;0.80;0.80;;;22.50;43.50;;;;;;5012848;28;20938;-84
2022/04/28 11:06:30;;;;;;;0.90;0.80;;;22.10;44.30;;;;;;5012965;28;20525;-80
2022/04/28 11:09:00;;;;;;;1.03;0.83;;;21.80;45.20;;;;;;5012654;28;20903;-80
2022/04/28 11:11:29;;;;;;;0.80;0.60;;;21.30;44.60;;;;;;5014409;28;20493;-81
2022/04/28 11:13:58;;;;;;;1.20;1.10;;;20.70;45.10;;;;;;5016635;28;20451;-82
2022/04/28 11:16:26;;;;;;;0.90;0.80;;;20.30;45.90;;;;;;5016571;28;20463;-81
2022/04/28 11:18:55;;;;;;;1.20;0.93;;;19.80;45.70;;;;;;4998827;28;20574;-81
2022/04/28 11:21:24;;;;;;;0.80;0.60;;;19.40;46.40;;;;;;5016118;28;20460;-81
2022/04/28 11:23:52;;;;;;;1.07;0.80;;;19.20;47.70;;;;;;5016168;28;20442;-80
2022/04/28 11:26:20;;;;;;;0.73;0.73;;;19.10;48.00;;;;;;5016051;28;20942;-81
2022/04/28 11:28:48;;;;;;;0.97;0.63;;;19.00;48.50;;;;;;5016693;28;20427;-84
2022/04/28 11:31:16;;;;;;;0.80;0.63;;;18.70;48.50;;;;;;5016143;28;20467;-80
2022/04/28 11:33:46;;;;;;;1.13;0.70;;;18.50;49.10;;;;;;5016178;28;20444;-81
2022/04/28 11:36:18;;;;;;;0.80;0.80;;;18.50;48.70;;;;;;5016185;28;20454;-83
2022/04/28 11:38:55;;;;;;;1.10;0.90;;;18.30;49.30;;;;;;5015684;28;20509;-83
2022/04/28 11:41:29;;;;;;;0.73;0.50;;;18.20;49.80;;;;;;5016081;28;20478;-83
2022/04/28 11:44:00;;;;;;;0.90;0.80;;;18.10;48.90;;;;;;5015903;28;20466;-80
2022/04/28 11:46:26;;;;;;;1.17;0.77;;;18.10;51.30;;;;;;5015826;28;20432;-82
2022/04/28 11:48:53;;;;;;;0.77;0.77;;;18.20;50.80;;;;;;5016017;28;20451;-81
2022/04/28 11:51:24;;;;;;;0.70;0.50;;;18.20;49.20;;;;;;5024038;28;20471;-89
2022/04/28 11:53:52;;;;;;;0.77;0.77;;;18.10;51.30;;;;;;5027152;28;20454;-90
2022/04/28 11:56:25;;;;;;;0.77;0.77;;;18.00;51.20;;;;;;5019549;28;20459;-88
2022/04/28 11:58:53;;;;;;;1.43;0.73;;;18.00;51.50;;;;;;5016749;28;20529;-85
2022/04/28 12:01:21;;;;;;;0.80;0.70;;;18.10;49.30;;;;;;5016124;28;20483;-86
2022/04/28 12:03:53;;;;;;;0.83;0.67;;;18.10;49.80;;;;;;5016109;28;20451;-85
2022/04/28 12:06:21;;;;;;;1.30;0.63;;;18.20;50.00;;;;;;5015929;28;20451;-84
2022/04/28 12:08:50;;;;;;;0.90;0.80;;;18.20;51.60;;;;;;5015614;28;20452;-86
2022/04/28 12:19:30;;;;;;;1.20;1.13;;;18.00;50.00;;;;;;4992949;28;20537;-81
2022/04/28 12:22:02;;;;;;;0.47;0.47;;;17.90;50.60;;;;;;5015022;28;20486;-81
2022/04/28 12:24:33;;;;;;;0.70;0.70;;;17.90;50.10;;;;;;5016185;28;20872;-81
2022/04/28 12:27:07;;;;;;;0.90;0.60;;;17.90;51.10;;;;;;5015323;28;20491;-81
2022/04/28 12:29:52;;;;;;;0.70;0.70;;;17.90;51.90;;;;;;5015172;28;20866;-80
2022/04/28 12:32:23;;;;;;;0.73;0.60;;;17.80;51.30;;;;;;5015441;28;20472;-80
2022/04/28 12:35:00;;;;;;;0.63;0.53;;;17.80;51.40;;;;;;5015252;28;20423;-80
2022/04/28 12:37:29;;;;;;;5.47;0.90;;;17.70;50.90;;;;;;5014859;28;20487;-80
2022/04/28 12:40:00;;;;;;;2.37;1.00;;;17.60;51.60;;;;;;5015581;28;20478;-81
2022/04/28 12:42:29;;;;;;;1.00;0.80;;;17.40;51.40;;;;;;5015151;28;20975;-81
2022/04/28 12:44:58;;;;;;;0.60;0.40;;;17.30;52.10;;;;;;5015215;28;20471;-81
2022/04/28 12:47:35;;;;;;;1.80;0.90;;;17.20;51.50;;;;;;5014783;28;20459;-81
2022/04/28 12:50:19;;;;;;;4.00;1.10;;;17.10;52.70;;;;;;5014884;28;20443;-81
2022/04/28 12:55:46;;;;;;;0.50;0.50;;;17.20;52.30;;;;;;5848091;22;21027;-85
2022/04/28 12:58:21;;;;;;;0.93;0.83;;;17.10;53.20;;;;;;4997237;28;20432;-89
2022/04/28 13:00:53;;;;;;;0.77;0.50;;;17.00;52.70;;;;;;4995834;28;20476;-85
2022/04/28 13:03:29;;;;;;;0.50;0.50;;;16.90;52.50;;;;;;4997018;28;20519;-86
2022/04/28 13:06:07;;;;;;;1.43;0.53;;;17.00;52.60;;;;;;4995817;28;20890;-85
2022/04/28 13:08:39;;;;;;;0.80;0.60;;;17.00;52.80;;;;;;4998770;28;20539;-86
2022/04/28 13:11:16;;;;;;;1.53;0.80;;;16.90;52.50;;;;;;4997807;28;20413;-85
2022/04/28 13:13:43;;;;;;;0.50;0.50;;;16.70;53.40;;;;;;4997780;28;20459;-86
2022/04/28 13:16:33;;;;;;;0.73;0.73;;;16.70;53.80;;;;;;4998207;28;20479;-87
2022/04/28 13:19:12;;;;;;;0.63;0.57;;;16.80;54.40;;;;;;4996553;28;20977;-86
2022/04/28 13:21:50;;;;;;;0.83;0.83;;;17.00;54.40;;;;;;4994555;28;20460;-85
2022/04/28 13:24:48;;;;;;;0.50;0.50;;;17.00;54.40;;;;;;4995999;28;20465;-86
2022/04/28 13:27:23;;;;;;;2.10;0.60;;;17.00;52.90;;;;;;4995583;28;20425;-88
2022/04/28 13:29:54;;;;;;;1.07;0.80;;;16.90;53.30;;;;;;4996696;28;20514;-86
2022/04/28 13:32:22;;;;;;;0.73;0.70;;;16.80;53.00;;;;;;4995770;28;20884;-84
2022/04/28 13:34:51;;;;;;;0.90;0.60;;;16.90;52.70;;;;;;4995422;28;20453;-84
2022/04/28 13:37:24;;;;;;;0.50;0.50;;;17.00;52.80;;;;;;4995038;28;20456;-85
2022/04/28 13:39:51;;;;;;;0.60;0.50;;;17.10;54.10;;;;;;4995598;28;20542;-85
2022/04/28 13:42:24;;;;;;;3.70;0.80;;;17.20;53.10;;;;;;4995633;28;20870;-87
2022/04/28 13:44:54;;;;;;;2.20;0.70;;;17.20;53.00;;;;;;4997383;28;20523;-87
2022/04/28 13:47:25;;;;;;;0.47;0.47;;;17.00;53.20;;;;;;4996315;28;20444;-85
2022/04/28 13:50:06;;;;;;;0.60;0.60;;;17.00;52.70;;;;;;4995395;28;20437;-85
2022/04/28 13:52:35;;;;;;;0.80;0.67;;;17.10;53.10;;;;;;4995174;28;20480;-86
2022/04/28 13:55:02;;;;;;;1.27;1.17;;;17.00;53.00;;;;;;4995243;28;20559;-85
2022/04/28 13:57:31;;;;;;;0.80;0.80;;;16.90;52.80;;;;;;5023318;28;20824;-84
2022/04/28 13:59:59;;;;;;;1.10;1.00;;;16.90;53.00;;;;;;5033917;28;21015;-85
2022/04/28 14:02:30;;;;;;;0.70;0.50;;;17.00;53.50;;;;;;5034127;28;20804;-86
2022/04/28 14:04:57;;;;;;;0.50;0.50;;;16.90;53.80;;;;;;5035045;28;20510;-87
2022/04/28 14:07:37;;;;;;;0.57;0.57;;;16.80;54.10;;;;;;5035049;28;20930;-88
2022/04/28 14:10:17;;;;;;;1.07;0.77;;;16.80;54.50;;;;;;5035407;28;20426;-85
2022/04/28 14:12:44;;;;;;;0.70;0.70;;;16.80;52.90;;;;;;5040145;28;20419;-84
2022/04/28 14:15:12;;;;;;;0.77;0.60;;;16.80;54.10;;;;;;5033670;28;20471;-84
2022/04/28 14:17:44;;;;;;;0.90;0.60;;;16.70;53.70;;;;;;5034111;28;20459;-84